sensor_id;sensor_type;location;lat;lon;timestamp;P1;durP1;ratioP1;P2;durP2;ratioP2
38859;SDS011;24609;48.316;16.174;2023-05-25T00:00:41;11.63;;;10.30;;
38859;SDS011;24609;48.316;16.174;2023-05-25T00:03:07;10.50;;;8.65;;
38859;SDS011;24609;48.316;16.174;2023-05-25T00:05:34;12.02;;;9.90;;
38859;SDS011;24609;48.316;16.174;2023-05-25T00:08:00;11.52;;;10.30;;
38859;SDS011;24609;48.316;16.174;2023-05-25T00:10:25;10.82;;;9.10;;
38859;SDS011;24609;48.316;16.174;2023-05-25T00:12:51;13.55;;;10.02;;
38859;SDS011;24609;48.316;16.174;2023-05-25T00:15:17;12.00;;;10.32;;
38859;SDS011;24609;48.316;16.174;2023-05-25T00:17:43;11.10;;;8.95;;
38859;SDS011;24609;48.316;16.174;2023-05-25T00:20:09;10.98;;;8.68;;
38859;SDS011;24609;48.316;16.174;2023-05-25T00:22:35;10.20;;;9.20;;
38859;SDS011;24609;48.316;16.174;2023-05-25T00:25:02;11.43;;;10.23;;
38859;SDS011;24609;48.316;16.174;2023-05-25T00:27:28;10.57;;;9.00;;
38859;SDS011;24609;48.316;16.174;2023-05-25T00:29:55;13.60;;;9.52;;
38859;SDS011;24609;48.316;16.174;2023-05-25T00:32:21;12.73;;;10.20;;
38859;SDS011;24609;48.316;16.174;2023-05-25T00:34:47;12.82;;;10.18;;
38859;SDS011;24609;48.316;16.174;2023-05-25T00:37:12;15.82;;;11.18;;
38859;SDS011;24609;48.316;16.174;2023-05-25T00:39:39;13.77;;;10.95;;
38859;SDS011;24609;48.316;16.174;2023-05-25T00:42:04;12.63;;;10.27;;
38859;SDS011;24609;48.316;16.174;2023-05-25T00:44:31;12.57;;;9.75;;
38859;SDS011;24609;48.316;16.174;2023-05-25T00:46:57;18.63;;;12.38;;
38859;SDS011;24609;48.316;16.174;2023-05-25T00:49:23;13.27;;;11.25;;
38859;SDS011;24609;48.316;16.174;2023-05-25T00:51:50;13.10;;;10.02;;
38859;SDS011;24609;48.316;16.174;2023-05-25T00:54:17;14.55;;;10.98;;
38859;SDS011;24609;48.316;16.174;2023-05-25T00:56:45;11.27;;;9.07;;
38859;SDS011;24609;48.316;16.174;2023-05-25T00:59:16;17.52;;;13.20;;
38859;SDS011;24609;48.316;16.174;2023-05-25T01:01:50;13.02;;;9.38;;
38859;SDS011;24609;48.316;16.174;2023-05-25T01:04:19;17.83;;;11.83;;
38859;SDS011;24609;48.316;16.174;2023-05-25T01:06:46;13.73;;;10.38;;
38859;SDS011;24609;48.316;16.174;2023-05-25T01:09:15;9.77;;;8.57;;
38859;SDS011;24609;48.316;16.174;2023-05-25T01:11:43;13.60;;;10.20;;
38859;SDS011;24609;48.316;16.174;2023-05-25T01:14:13;13.65;;;11.18;;
38859;SDS011;24609;48.316;16.174;2023-05-25T01:16:43;12.30;;;10.00;;
38859;SDS011;24609;48.316;16.174;2023-05-25T01:19:09;14.55;;;11.10;;
38859;SDS011;24609;48.316;16.174;2023-05-25T01:24:14;13.00;;;10.07;;
38859;SDS011;24609;48.316;16.174;2023-05-25T01:26:47;11.27;;;9.68;;
38859;SDS011;24609;48.316;16.174;2023-05-25T01:29:33;13.32;;;10.38;;
38859;SDS011;24609;48.316;16.174;2023-05-25T01:32:01;13.07;;;10.88;;
38859;SDS011;24609;48.316;16.174;2023-05-25T01:34:29;14.52;;;12.98;;
38859;SDS011;24609;48.316;16.174;2023-05-25T01:36:56;15.48;;;13.32;;
38859;SDS011;24609;48.316;16.174;2023-05-25T01:39:22;14.82;;;12.35;;
38859;SDS011;24609;48.316;16.174;2023-05-25T01:41:48;16.05;;;11.93;;
38859;SDS011;24609;48.316;16.174;2023-05-25T01:44:13;13.98;;;12.40;;
38859;SDS011;24609;48.316;16.174;2023-05-25T01:46:40;12.63;;;11.00;;
38859;SDS011;24609;48.316;16.174;2023-05-25T01:51:38;14.10;;;10.90;;
38859;SDS011;24609;48.316;16.174;2023-05-25T01:54:06;14.02;;;11.15;;
38859;SDS011;24609;48.316;16.174;2023-05-25T01:56:44;19.73;;;13.85;;
38859;SDS011;24609;48.316;16.174;2023-05-25T01:59:13;12.10;;;10.27;;
38859;SDS011;24609;48.316;16.174;2023-05-25T02:01:40;14.48;;;10.20;;
38859;SDS011;24609;48.316;16.174;2023-05-25T02:04:07;18.45;;;13.57;;
38859;SDS011;24609;48.316;16.174;2023-05-25T02:06:34;26.75;;;15.60;;
38859;SDS011;24609;48.316;16.174;2023-05-25T02:09:01;21.45;;;15.02;;
38859;SDS011;24609;48.316;16.174;2023-05-25T02:11:26;25.48;;;19.55;;
38859;SDS011;24609;48.316;16.174;2023-05-25T02:13:52;25.42;;;18.20;;
38859;SDS011;24609;48.316;16.174;2023-05-25T02:16:18;25.17;;;16.50;;
38859;SDS011;24609;48.316;16.174;2023-05-25T02:18:44;17.52;;;14.52;;
38859;SDS011;24609;48.316;16.174;2023-05-25T02:21:10;16.25;;;12.93;;
38859;SDS011;24609;48.316;16.174;2023-05-25T02:23:36;17.27;;;14.40;;
38859;SDS011;24609;48.316;16.174;2023-05-25T02:26:01;18.00;;;14.52;;
38859;SDS011;24609;48.316;16.174;2023-05-25T02:28:27;14.88;;;11.88;;
38859;SDS011;24609;48.316;16.174;2023-05-25T02:30:53;16.67;;;12.68;;
38859;SDS011;24609;48.316;16.174;2023-05-25T02:33:18;18.85;;;12.90;;
38859;SDS011;24609;48.316;16.174;2023-05-25T02:35:44;15.80;;;13.95;;
38859;SDS011;24609;48.316;16.174;2023-05-25T02:38:10;18.45;;;14.35;;
38859;SDS011;24609;48.316;16.174;2023-05-25T02:40:36;15.13;;;12.88;;
38859;SDS011;24609;48.316;16.174;2023-05-25T02:43:02;16.77;;;14.45;;
38859;SDS011;24609;48.316;16.174;2023-05-25T02:45:27;21.55;;;14.48;;
38859;SDS011;24609;48.316;16.174;2023-05-25T02:47:53;24.17;;;16.85;;
38859;SDS011;24609;48.316;16.174;2023-05-25T02:50:19;19.40;;;15.18;;
38859;SDS011;24609;48.316;16.174;2023-05-25T02:52:45;15.27;;;13.15;;
38859;SDS011;24609;48.316;16.174;2023-05-25T02:55:11;19.73;;;15.45;;
38859;SDS011;24609;48.316;16.174;2023-05-25T02:57:42;22.38;;;16.27;;
38859;SDS011;24609;48.316;16.174;2023-05-25T03:00:08;18.95;;;15.73;;
38859;SDS011;24609;48.316;16.174;2023-05-25T03:02:36;18.10;;;14.02;;
38859;SDS011;24609;48.316;16.174;2023-05-25T03:05:02;22.98;;;15.75;;
38859;SDS011;24609;48.316;16.174;2023-05-25T03:07:28;18.05;;;14.18;;
38859;SDS011;24609;48.316;16.174;2023-05-25T03:09:53;21.60;;;13.60;;
38859;SDS011;24609;48.316;16.174;2023-05-25T03:12:19;19.55;;;13.00;;
38859;SDS011;24609;48.316;16.174;2023-05-25T03:14:45;16.45;;;12.73;;
38859;SDS011;24609;48.316;16.174;2023-05-25T03:17:10;18.00;;;13.07;;
38859;SDS011;24609;48.316;16.174;2023-05-25T03:19:36;25.23;;;12.60;;
38859;SDS011;24609;48.316;16.174;2023-05-25T03:22:02;19.73;;;15.60;;
38859;SDS011;24609;48.316;16.174;2023-05-25T03:24:28;25.90;;;17.17;;
38859;SDS011;24609;48.316;16.174;2023-05-25T03:26:54;17.25;;;11.60;;
38859;SDS011;24609;48.316;16.174;2023-05-25T03:29:19;14.32;;;12.25;;
38859;SDS011;24609;48.316;16.174;2023-05-25T03:31:45;16.30;;;11.45;;
38859;SDS011;24609;48.316;16.174;2023-05-25T03:34:11;16.52;;;12.50;;
38859;SDS011;24609;48.316;16.174;2023-05-25T03:36:37;19.40;;;13.32;;
38859;SDS011;24609;48.316;16.174;2023-05-25T03:39:03;16.48;;;13.15;;
38859;SDS011;24609;48.316;16.174;2023-05-25T03:41:29;18.60;;;12.30;;
38859;SDS011;24609;48.316;16.174;2023-05-25T03:43:55;19.25;;;13.10;;
38859;SDS011;24609;48.316;16.174;2023-05-25T03:46:20;14.27;;;11.88;;
38859;SDS011;24609;48.316;16.174;2023-05-25T03:48:46;18.63;;;14.00;;
38859;SDS011;24609;48.316;16.174;2023-05-25T03:51:12;18.15;;;12.20;;
38859;SDS011;24609;48.316;16.174;2023-05-25T03:53:37;17.42;;;13.73;;
38859;SDS011;24609;48.316;16.174;2023-05-25T03:56:03;18.40;;;13.05;;
38859;SDS011;24609;48.316;16.174;2023-05-25T03:58:29;15.98;;;13.07;;
38859;SDS011;24609;48.316;16.174;2023-05-25T04:00:55;18.73;;;14.18;;
38859;SDS011;24609;48.316;16.174;2023-05-25T04:03:21;18.40;;;14.00;;
38859;SDS011;24609;48.316;16.174;2023-05-25T04:05:46;16.08;;;13.40;;
38859;SDS011;24609;48.316;16.174;2023-05-25T04:08:12;20.17;;;12.70;;
38859;SDS011;24609;48.316;16.174;2023-05-25T04:10:41;15.93;;;13.18;;
38859;SDS011;24609;48.316;16.174;2023-05-25T04:13:10;16.55;;;14.52;;
38859;SDS011;24609;48.316;16.174;2023-05-25T04:15:36;21.75;;;14.35;;
38859;SDS011;24609;48.316;16.174;2023-05-25T04:18:02;19.20;;;14.18;;
38859;SDS011;24609;48.316;16.174;2023-05-25T04:20:28;16.73;;;13.68;;
38859;SDS011;24609;48.316;16.174;2023-05-25T04:22:54;21.02;;;12.88;;
38859;SDS011;24609;48.316;16.174;2023-05-25T04:25:20;16.77;;;12.52;;
38859;SDS011;24609;48.316;16.174;2023-05-25T04:27:45;18.80;;;11.90;;
38859;SDS011;24609;48.316;16.174;2023-05-25T04:30:13;17.67;;;11.80;;
38859;SDS011;24609;48.316;16.174;2023-05-25T04:32:39;16.10;;;10.50;;
38859;SDS011;24609;48.316;16.174;2023-05-25T04:35:05;14.73;;;11.68;;
38859;SDS011;24609;48.316;16.174;2023-05-25T04:37:31;16.83;;;10.52;;
38859;SDS011;24609;48.316;16.174;2023-05-25T04:39:57;14.15;;;10.02;;
38859;SDS011;24609;48.316;16.174;2023-05-25T04:42:23;15.13;;;11.18;;
38859;SDS011;24609;48.316;16.174;2023-05-25T04:44:50;14.98;;;9.57;;
38859;SDS011;24609;48.316;16.174;2023-05-25T04:47:23;14.40;;;8.95;;
38859;SDS011;24609;48.316;16.174;2023-05-25T04:49:48;14.88;;;7.72;;
38859;SDS011;24609;48.316;16.174;2023-05-25T04:52:14;12.23;;;7.90;;
38859;SDS011;24609;48.316;16.174;2023-05-25T04:54:40;12.60;;;8.40;;
38859;SDS011;24609;48.316;16.174;2023-05-25T04:57:07;14.57;;;7.43;;
38859;SDS011;24609;48.316;16.174;2023-05-25T04:59:33;10.63;;;6.55;;
38859;SDS011;24609;48.316;16.174;2023-05-25T05:01:58;12.82;;;7.15;;
38859;SDS011;24609;48.316;16.174;2023-05-25T05:04:24;9.38;;;6.57;;
38859;SDS011;24609;48.316;16.174;2023-05-25T05:06:50;11.23;;;6.93;;
38859;SDS011;24609;48.316;16.174;2023-05-25T05:09:16;12.52;;;6.15;;
38859;SDS011;24609;48.316;16.174;2023-05-25T05:11:41;11.25;;;6.47;;
38859;SDS011;24609;48.316;16.174;2023-05-25T05:14:07;10.30;;;6.22;;
38859;SDS011;24609;48.316;16.174;2023-05-25T05:16:33;10.60;;;6.80;;
38859;SDS011;24609;48.316;16.174;2023-05-25T05:19:02;10.43;;;6.70;;
38859;SDS011;24609;48.316;16.174;2023-05-25T05:21:28;10.68;;;6.30;;
38859;SDS011;24609;48.316;16.174;2023-05-25T05:23:54;12.80;;;8.00;;
38859;SDS011;24609;48.316;16.174;2023-05-25T05:26:20;13.82;;;8.82;;
38859;SDS011;24609;48.316;16.174;2023-05-25T05:28:47;9.60;;;7.43;;
38859;SDS011;24609;48.316;16.174;2023-05-25T05:31:13;10.45;;;6.13;;
38859;SDS011;24609;48.316;16.174;2023-05-25T05:33:41;12.30;;;7.57;;
38859;SDS011;24609;48.316;16.174;2023-05-25T05:36:07;11.27;;;5.95;;
38859;SDS011;24609;48.316;16.174;2023-05-25T05:38:33;13.02;;;9.43;;
38859;SDS011;24609;48.316;16.174;2023-05-25T05:40:59;14.05;;;7.35;;
38859;SDS011;24609;48.316;16.174;2023-05-25T05:43:25;8.88;;;6.85;;
38859;SDS011;24609;48.316;16.174;2023-05-25T05:45:51;11.35;;;7.32;;
38859;SDS011;24609;48.316;16.174;2023-05-25T05:48:17;15.07;;;8.00;;
38859;SDS011;24609;48.316;16.174;2023-05-25T05:50:42;10.35;;;6.20;;
38859;SDS011;24609;48.316;16.174;2023-05-25T05:53:08;12.23;;;6.72;;
38859;SDS011;24609;48.316;16.174;2023-05-25T05:55:35;10.00;;;6.82;;
38859;SDS011;24609;48.316;16.174;2023-05-25T05:58:00;10.35;;;5.60;;
38859;SDS011;24609;48.316;16.174;2023-05-25T06:00:26;13.50;;;8.25;;
38859;SDS011;24609;48.316;16.174;2023-05-25T06:02:52;12.30;;;6.88;;
38859;SDS011;24609;48.316;16.174;2023-05-25T06:05:17;12.60;;;7.05;;
38859;SDS011;24609;48.316;16.174;2023-05-25T06:07:44;11.95;;;6.55;;
38859;SDS011;24609;48.316;16.174;2023-05-25T06:10:10;11.55;;;6.53;;
38859;SDS011;24609;48.316;16.174;2023-05-25T06:12:36;10.95;;;7.25;;
38859;SDS011;24609;48.316;16.174;2023-05-25T06:15:02;12.07;;;7.25;;
38859;SDS011;24609;48.316;16.174;2023-05-25T06:17:28;9.52;;;6.30;;
38859;SDS011;24609;48.316;16.174;2023-05-25T06:19:54;12.25;;;6.40;;
38859;SDS011;24609;48.316;16.174;2023-05-25T06:22:20;11.60;;;6.65;;
38859;SDS011;24609;48.316;16.174;2023-05-25T06:24:47;11.63;;;6.15;;
38859;SDS011;24609;48.316;16.174;2023-05-25T06:27:13;9.85;;;5.95;;
38859;SDS011;24609;48.316;16.174;2023-05-25T06:29:41;8.30;;;6.43;;
38859;SDS011;24609;48.316;16.174;2023-05-25T06:32:07;14.30;;;7.63;;
38859;SDS011;24609;48.316;16.174;2023-05-25T06:34:34;11.20;;;7.10;;
38859;SDS011;24609;48.316;16.174;2023-05-25T06:37:00;8.90;;;5.63;;
38859;SDS011;24609;48.316;16.174;2023-05-25T06:39:26;12.90;;;7.70;;
38859;SDS011;24609;48.316;16.174;2023-05-25T06:41:52;10.93;;;7.65;;
38859;SDS011;24609;48.316;16.174;2023-05-25T06:44:17;10.88;;;7.25;;
38859;SDS011;24609;48.316;16.174;2023-05-25T06:46:43;11.85;;;7.75;;
38859;SDS011;24609;48.316;16.174;2023-05-25T06:49:09;13.13;;;7.53;;
38859;SDS011;24609;48.316;16.174;2023-05-25T06:51:35;10.18;;;6.95;;
38859;SDS011;24609;48.316;16.174;2023-05-25T06:54:01;10.13;;;6.47;;
38859;SDS011;24609;48.316;16.174;2023-05-25T06:56:27;11.27;;;6.63;;
38859;SDS011;24609;48.316;16.174;2023-05-25T06:58:53;10.18;;;6.68;;
38859;SDS011;24609;48.316;16.174;2023-05-25T07:01:18;12.40;;;7.57;;
38859;SDS011;24609;48.316;16.174;2023-05-25T07:03:44;11.45;;;6.70;;
38859;SDS011;24609;48.316;16.174;2023-05-25T07:06:10;12.32;;;6.93;;
38859;SDS011;24609;48.316;16.174;2023-05-25T07:08:36;9.73;;;6.22;;
38859;SDS011;24609;48.316;16.174;2023-05-25T07:11:02;9.73;;;6.82;;
38859;SDS011;24609;48.316;16.174;2023-05-25T07:13:28;14.77;;;7.65;;
38859;SDS011;24609;48.316;16.174;2023-05-25T07:15:54;11.68;;;7.10;;
38859;SDS011;24609;48.316;16.174;2023-05-25T07:18:19;13.32;;;7.18;;
38859;SDS011;24609;48.316;16.174;2023-05-25T07:20:45;12.50;;;7.13;;
38859;SDS011;24609;48.316;16.174;2023-05-25T07:23:12;11.73;;;7.38;;
38859;SDS011;24609;48.316;16.174;2023-05-25T07:25:37;12.27;;;7.38;;
38859;SDS011;24609;48.316;16.174;2023-05-25T07:28:03;9.90;;;7.18;;
38859;SDS011;24609;48.316;16.174;2023-05-25T07:30:29;10.77;;;7.50;;
38859;SDS011;24609;48.316;16.174;2023-05-25T07:32:55;11.00;;;6.95;;
38859;SDS011;24609;48.316;16.174;2023-05-25T07:35:22;11.02;;;6.30;;
38859;SDS011;24609;48.316;16.174;2023-05-25T07:38:21;10.70;;;6.55;;
38859;SDS011;24609;48.316;16.174;2023-05-25T07:40:40;12.93;;;8.13;;
38859;SDS011;24609;48.316;16.174;2023-05-25T07:43:07;11.50;;;6.40;;
38859;SDS011;24609;48.316;16.174;2023-05-25T07:45:33;10.35;;;6.20;;
38859;SDS011;24609;48.316;16.174;2023-05-25T07:47:58;9.85;;;6.50;;
38859;SDS011;24609;48.316;16.174;2023-05-25T07:50:24;12.00;;;6.13;;
38859;SDS011;24609;48.316;16.174;2023-05-25T07:52:50;13.25;;;6.55;;
38859;SDS011;24609;48.316;16.174;2023-05-25T07:55:16;10.18;;;6.65;;
38859;SDS011;24609;48.316;16.174;2023-05-25T07:57:43;7.85;;;5.50;;
38859;SDS011;24609;48.316;16.174;2023-05-25T08:00:08;10.35;;;5.88;;
38859;SDS011;24609;48.316;16.174;2023-05-25T08:02:35;12.27;;;7.00;;
38859;SDS011;24609;48.316;16.174;2023-05-25T08:05:01;8.27;;;5.28;;
38859;SDS011;24609;48.316;16.174;2023-05-25T08:07:30;7.70;;;5.07;;
38859;SDS011;24609;48.316;16.174;2023-05-25T08:09:56;10.13;;;6.50;;
38859;SDS011;24609;48.316;16.174;2023-05-25T08:12:22;7.72;;;5.45;;
38859;SDS011;24609;48.316;16.174;2023-05-25T08:14:48;9.73;;;6.25;;
38859;SDS011;24609;48.316;16.174;2023-05-25T08:17:14;10.48;;;6.15;;
38859;SDS011;24609;48.316;16.174;2023-05-25T08:19:40;9.00;;;5.70;;
38859;SDS011;24609;48.316;16.174;2023-05-25T08:22:06;9.82;;;5.85;;
38859;SDS011;24609;48.316;16.174;2023-05-25T08:24:31;9.60;;;5.70;;
38859;SDS011;24609;48.316;16.174;2023-05-25T08:26:57;8.82;;;6.05;;
38859;SDS011;24609;48.316;16.174;2023-05-25T08:29:23;9.23;;;5.63;;
38859;SDS011;24609;48.316;16.174;2023-05-25T08:31:49;10.02;;;6.13;;
38859;SDS011;24609;48.316;16.174;2023-05-25T08:34:15;9.98;;;5.72;;
38859;SDS011;24609;48.316;16.174;2023-05-25T08:36:41;12.73;;;6.80;;
38859;SDS011;24609;48.316;16.174;2023-05-25T08:39:07;10.48;;;7.25;;
38859;SDS011;24609;48.316;16.174;2023-05-25T08:41:39;9.45;;;5.40;;
38859;SDS011;24609;48.316;16.174;2023-05-25T08:44:08;11.80;;;6.18;;
38859;SDS011;24609;48.316;16.174;2023-05-25T08:46:34;12.40;;;5.95;;
38859;SDS011;24609;48.316;16.174;2023-05-25T08:49:06;10.80;;;6.38;;
38859;SDS011;24609;48.316;16.174;2023-05-25T08:51:37;10.00;;;5.28;;
38859;SDS011;24609;48.316;16.174;2023-05-25T08:54:06;10.13;;;5.70;;
38859;SDS011;24609;48.316;16.174;2023-05-25T08:56:40;8.50;;;4.78;;
38859;SDS011;24609;48.316;16.174;2023-05-25T08:59:22;9.10;;;5.25;;
38859;SDS011;24609;48.316;16.174;2023-05-25T09:02:44;7.47;;;4.88;;
38859;SDS011;24609;48.316;16.174;2023-05-25T09:04:56;9.02;;;5.00;;
38859;SDS011;24609;48.316;16.174;2023-05-25T09:07:25;8.25;;;5.30;;
38859;SDS011;24609;48.316;16.174;2023-05-25T09:09:51;8.43;;;4.90;;
38859;SDS011;24609;48.316;16.174;2023-05-25T09:12:18;9.57;;;5.55;;
38859;SDS011;24609;48.316;16.174;2023-05-25T09:14:45;7.30;;;5.28;;
38859;SDS011;24609;48.316;16.174;2023-05-25T09:17:14;14.95;;;5.88;;
38859;SDS011;24609;48.316;16.174;2023-05-25T09:19:41;6.88;;;4.40;;
38859;SDS011;24609;48.316;16.174;2023-05-25T09:22:07;7.47;;;4.05;;
38859;SDS011;24609;48.316;16.174;2023-05-25T09:24:36;9.15;;;5.00;;
38859;SDS011;24609;48.316;16.174;2023-05-25T09:27:05;10.77;;;5.18;;
38859;SDS011;24609;48.316;16.174;2023-05-25T09:29:35;8.48;;;4.85;;
38859;SDS011;24609;48.316;16.174;2023-05-25T09:32:02;8.00;;;4.80;;
38859;SDS011;24609;48.316;16.174;2023-05-25T09:34:30;7.68;;;4.50;;
38859;SDS011;24609;48.316;16.174;2023-05-25T09:37:00;9.90;;;5.60;;
38859;SDS011;24609;48.316;16.174;2023-05-25T09:39:34;9.35;;;5.20;;
38859;SDS011;24609;48.316;16.174;2023-05-25T09:42:00;10.73;;;4.95;;
38859;SDS011;24609;48.316;16.174;2023-05-25T09:44:26;8.65;;;5.78;;
38859;SDS011;24609;48.316;16.174;2023-05-25T09:46:52;6.10;;;4.32;;
38859;SDS011;24609;48.316;16.174;2023-05-25T09:49:18;9.30;;;5.30;;
38859;SDS011;24609;48.316;16.174;2023-05-25T09:51:44;10.52;;;5.50;;
38859;SDS011;24609;48.316;16.174;2023-05-25T09:54:11;7.95;;;5.10;;
38859;SDS011;24609;48.316;16.174;2023-05-25T09:56:37;7.75;;;4.50;;
38859;SDS011;24609;48.316;16.174;2023-05-25T09:59:03;14.88;;;5.13;;
38859;SDS011;24609;48.316;16.174;2023-05-25T10:01:28;7.75;;;4.13;;
38859;SDS011;24609;48.316;16.174;2023-05-25T10:03:57;7.78;;;4.40;;
38859;SDS011;24609;48.316;16.174;2023-05-25T10:06:24;9.50;;;4.50;;
38859;SDS011;24609;48.316;16.174;2023-05-25T10:08:50;6.70;;;4.13;;
38859;SDS011;24609;48.316;16.174;2023-05-25T10:11:17;8.40;;;3.78;;
38859;SDS011;24609;48.316;16.174;2023-05-25T10:13:45;9.77;;;4.10;;
38859;SDS011;24609;48.316;16.174;2023-05-25T10:16:14;5.93;;;3.42;;
38859;SDS011;24609;48.316;16.174;2023-05-25T10:18:52;8.20;;;4.50;;
38859;SDS011;24609;48.316;16.174;2023-05-25T10:21:23;7.78;;;4.43;;
38859;SDS011;24609;48.316;16.174;2023-05-25T10:23:51;6.43;;;4.50;;
38859;SDS011;24609;48.316;16.174;2023-05-25T10:26:21;17.40;;;4.43;;
38859;SDS011;24609;48.316;16.174;2023-05-25T10:28:50;7.80;;;4.70;;
38859;SDS011;24609;48.316;16.174;2023-05-25T10:31:20;10.18;;;4.60;;
38859;SDS011;24609;48.316;16.174;2023-05-25T10:33:45;8.15;;;4.15;;
38859;SDS011;24609;48.316;16.174;2023-05-25T10:36:12;9.45;;;5.25;;
38859;SDS011;24609;48.316;16.174;2023-05-25T10:38:39;6.32;;;4.65;;
38859;SDS011;24609;48.316;16.174;2023-05-25T10:41:05;6.68;;;4.28;;
38859;SDS011;24609;48.316;16.174;2023-05-25T10:43:33;9.82;;;4.63;;
38859;SDS011;24609;48.316;16.174;2023-05-25T10:45:59;7.63;;;4.45;;
38859;SDS011;24609;48.316;16.174;2023-05-25T10:48:38;7.28;;;4.93;;
38859;SDS011;24609;48.316;16.174;2023-05-25T10:51:09;6.00;;;4.63;;
38859;SDS011;24609;48.316;16.174;2023-05-25T10:53:34;8.55;;;4.50;;
38859;SDS011;24609;48.316;16.174;2023-05-25T10:56:03;7.93;;;4.63;;
38859;SDS011;24609;48.316;16.174;2023-05-25T10:58:31;7.32;;;4.40;;
38859;SDS011;24609;48.316;16.174;2023-05-25T11:00:58;8.75;;;4.25;;
38859;SDS011;24609;48.316;16.174;2023-05-25T11:06:11;7.18;;;4.10;;
38859;SDS011;24609;48.316;16.174;2023-05-25T11:08:57;8.95;;;4.28;;
38859;SDS011;24609;48.316;16.174;2023-05-25T11:14:20;8.20;;;4.47;;
38859;SDS011;24609;48.316;16.174;2023-05-25T11:22:33;6.72;;;3.83;;
38859;SDS011;24609;48.316;16.174;2023-05-25T11:25:00;5.47;;;3.60;;
38859;SDS011;24609;48.316;16.174;2023-05-25T11:27:27;7.35;;;4.13;;
38859;SDS011;24609;48.316;16.174;2023-05-25T11:29:55;4.90;;;3.40;;
38859;SDS011;24609;48.316;16.174;2023-05-25T11:32:21;7.13;;;3.58;;
38859;SDS011;24609;48.316;16.174;2023-05-25T11:34:50;5.15;;;3.08;;
38859;SDS011;24609;48.316;16.174;2023-05-25T11:37:17;6.35;;;3.85;;
38859;SDS011;24609;48.316;16.174;2023-05-25T11:39:51;7.25;;;3.67;;
38859;SDS011;24609;48.316;16.174;2023-05-25T11:42:18;5.55;;;3.60;;
38859;SDS011;24609;48.316;16.174;2023-05-25T11:44:45;8.02;;;4.43;;
38859;SDS011;24609;48.316;16.174;2023-05-25T11:47:12;7.45;;;4.43;;
38859;SDS011;24609;48.316;16.174;2023-05-25T11:49:42;7.82;;;4.43;;
38859;SDS011;24609;48.316;16.174;2023-05-25T11:52:14;6.80;;;3.92;;
38859;SDS011;24609;48.316;16.174;2023-05-25T11:54:40;6.38;;;3.70;;
38859;SDS011;24609;48.316;16.174;2023-05-25T11:57:13;12.55;;;4.68;;
38859;SDS011;24609;48.316;16.174;2023-05-25T12:00:02;7.88;;;3.53;;
38859;SDS011;24609;48.316;16.174;2023-05-25T12:02:35;5.90;;;3.70;;
38859;SDS011;24609;48.316;16.174;2023-05-25T12:05:02;6.45;;;4.18;;
38859;SDS011;24609;48.316;16.174;2023-05-25T12:07:28;5.97;;;3.90;;
38859;SDS011;24609;48.316;16.174;2023-05-25T12:12:40;7.00;;;4.00;;
38859;SDS011;24609;48.316;16.174;2023-05-25T12:15:10;5.88;;;3.58;;
38859;SDS011;24609;48.316;16.174;2023-05-25T12:17:40;7.70;;;4.53;;
38859;SDS011;24609;48.316;16.174;2023-05-25T12:20:08;8.63;;;4.10;;
38859;SDS011;24609;48.316;16.174;2023-05-25T12:22:35;7.82;;;3.90;;
38859;SDS011;24609;48.316;16.174;2023-05-25T12:25:03;5.45;;;3.95;;
38859;SDS011;24609;48.316;16.174;2023-05-25T12:27:30;5.63;;;3.78;;
38859;SDS011;24609;48.316;16.174;2023-05-25T12:29:57;7.50;;;4.10;;
38859;SDS011;24609;48.316;16.174;2023-05-25T12:32:23;7.43;;;3.70;;
38859;SDS011;24609;48.316;16.174;2023-05-25T12:34:49;6.80;;;3.75;;
38859;SDS011;24609;48.316;16.174;2023-05-25T12:37:18;6.68;;;4.07;;
38859;SDS011;24609;48.316;16.174;2023-05-25T12:39:45;9.38;;;3.92;;
38859;SDS011;24609;48.316;16.174;2023-05-25T12:42:11;11.48;;;4.13;;
38859;SDS011;24609;48.316;16.174;2023-05-25T12:44:42;7.38;;;4.07;;
38859;SDS011;24609;48.316;16.174;2023-05-25T12:47:17;6.03;;;3.80;;
38859;SDS011;24609;48.316;16.174;2023-05-25T12:49:53;6.60;;;3.85;;
38859;SDS011;24609;48.316;16.174;2023-05-25T12:52:40;5.88;;;3.72;;
38859;SDS011;24609;48.316;16.174;2023-05-25T12:57:53;7.03;;;3.80;;
38859;SDS011;24609;48.316;16.174;2023-05-25T13:00:30;7.15;;;4.10;;
38859;SDS011;24609;48.316;16.174;2023-05-25T13:03:00;5.43;;;3.53;;
38859;SDS011;24609;48.316;16.174;2023-05-25T13:05:27;7.10;;;4.28;;
38859;SDS011;24609;48.316;16.174;2023-05-25T13:07:58;5.97;;;4.22;;
38859;SDS011;24609;48.316;16.174;2023-05-25T13:10:24;7.75;;;3.83;;
38859;SDS011;24609;48.316;16.174;2023-05-25T13:12:50;10.00;;;4.40;;
38859;SDS011;24609;48.316;16.174;2023-05-25T13:15:18;6.25;;;4.07;;
38859;SDS011;24609;48.316;16.174;2023-05-25T13:17:45;5.32;;;4.18;;
38859;SDS011;24609;48.316;16.174;2023-05-25T13:20:22;5.35;;;3.97;;
38859;SDS011;24609;48.316;16.174;2023-05-25T13:22:49;6.88;;;4.55;;
38859;SDS011;24609;48.316;16.174;2023-05-25T13:25:16;7.83;;;4.40;;
38859;SDS011;24609;48.316;16.174;2023-05-25T13:27:46;7.03;;;3.78;;
38859;SDS011;24609;48.316;16.174;2023-05-25T13:30:13;10.02;;;4.80;;
38859;SDS011;24609;48.316;16.174;2023-05-25T13:32:39;5.90;;;3.97;;
38859;SDS011;24609;48.316;16.174;2023-05-25T13:35:07;6.60;;;4.03;;
38859;SDS011;24609;48.316;16.174;2023-05-25T13:37:36;5.15;;;3.83;;
38859;SDS011;24609;48.316;16.174;2023-05-25T13:40:02;9.05;;;4.75;;
38859;SDS011;24609;48.316;16.174;2023-05-25T13:42:28;7.35;;;4.55;;
38859;SDS011;24609;48.316;16.174;2023-05-25T13:44:54;8.38;;;3.95;;
38859;SDS011;24609;48.316;16.174;2023-05-25T13:47:20;6.05;;;3.92;;
38859;SDS011;24609;48.316;16.174;2023-05-25T13:49:45;6.20;;;3.72;;
38859;SDS011;24609;48.316;16.174;2023-05-25T13:52:11;7.63;;;3.78;;
38859;SDS011;24609;48.316;16.174;2023-05-25T13:54:37;5.03;;;3.60;;
38859;SDS011;24609;48.316;16.174;2023-05-25T13:57:03;6.85;;;4.20;;
38859;SDS011;24609;48.316;16.174;2023-05-25T13:59:31;6.60;;;4.00;;
38859;SDS011;24609;48.316;16.174;2023-05-25T14:01:57;7.20;;;3.90;;
38859;SDS011;24609;48.316;16.174;2023-05-25T14:04:22;10.43;;;5.30;;
38859;SDS011;24609;48.316;16.174;2023-05-25T14:06:48;6.10;;;4.30;;
38859;SDS011;24609;48.316;16.174;2023-05-25T14:09:14;6.57;;;4.03;;
38859;SDS011;24609;48.316;16.174;2023-05-25T14:11:40;7.55;;;4.13;;
38859;SDS011;24609;48.316;16.174;2023-05-25T14:14:05;6.00;;;3.75;;
38859;SDS011;24609;48.316;16.174;2023-05-25T14:16:35;5.22;;;3.95;;
38859;SDS011;24609;48.316;16.174;2023-05-25T14:19:01;8.20;;;3.83;;
38859;SDS011;24609;48.316;16.174;2023-05-25T14:21:28;5.53;;;3.92;;
38859;SDS011;24609;48.316;16.174;2023-05-25T14:23:54;8.65;;;4.25;;
38859;SDS011;24609;48.316;16.174;2023-05-25T14:26:20;5.80;;;4.15;;
38859;SDS011;24609;48.316;16.174;2023-05-25T14:28:46;6.60;;;3.90;;
38859;SDS011;24609;48.316;16.174;2023-05-25T14:31:12;7.45;;;3.80;;
38859;SDS011;24609;48.316;16.174;2023-05-25T14:33:38;7.75;;;4.13;;
38859;SDS011;24609;48.316;16.174;2023-05-25T14:36:04;6.00;;;3.75;;
38859;SDS011;24609;48.316;16.174;2023-05-25T14:38:30;8.50;;;4.93;;
38859;SDS011;24609;48.316;16.174;2023-05-25T14:40:56;5.75;;;3.97;;
38859;SDS011;24609;48.316;16.174;2023-05-25T14:43:22;6.63;;;3.92;;
38859;SDS011;24609;48.316;16.174;2023-05-25T14:45:48;7.10;;;3.92;;